sensor_id;sensor_type;location;lat;lon;timestamp;P1;durP1;ratioP1;P2;durP2;ratioP2
7179;SDS011;3631;42.152;24.756;2023-04-10T00:00:13;6.73;;;6.13;;
7179;SDS011;3631;42.152;24.756;2023-04-10T00:06:16;6.47;;;5.87;;
7179;SDS011;3631;42.152;24.756;2023-04-10T00:09:20;7.10;;;6.40;;
7179;SDS011;3631;42.152;24.756;2023-04-10T00:12:20;7.07;;;5.90;;
7179;SDS011;3631;42.152;24.756;2023-04-10T00:15:14;7.30;;;6.60;;
7179;SDS011;3631;42.152;24.756;2023-04-10T00:18:30;10.93;;;7.63;;
7179;SDS011;3631;42.152;24.756;2023-04-10T00:21:36;8.93;;;7.13;;
7179;SDS011;3631;42.152;24.756;2023-04-10T00:24:49;10.67;;;6.97;;
7179;SDS011;3631;42.152;24.756;2023-04-10T00:28:05;9.20;;;7.43;;
7179;SDS011;3631;42.152;24.756;2023-04-10T00:31:01;11.37;;;7.80;;
7179;SDS011;3631;42.152;24.756;2023-04-10T00:33:57;9.23;;;7.00;;
7179;SDS011;3631;42.152;24.756;2023-04-10T00:36:50;8.80;;;7.43;;
7179;SDS011;3631;42.152;24.756;2023-04-10T00:40:19;7.67;;;6.67;;
7179;SDS011;3631;42.152;24.756;2023-04-10T00:43:18;7.60;;;6.37;;
7179;SDS011;3631;42.152;24.756;2023-04-10T00:46:27;6.97;;;6.27;;
7179;SDS011;3631;42.152;24.756;2023-04-10T00:49:34;9.03;;;6.17;;
7179;SDS011;3631;42.152;24.756;2023-04-10T00:52:31;7.00;;;6.30;;
7179;SDS011;3631;42.152;24.756;2023-04-10T00:55:08;6.73;;;6.03;;
7179;SDS011;3631;42.152;24.756;2023-04-10T00:58:22;7.03;;;6.33;;
7179;SDS011;3631;42.152;24.756;2023-04-10T01:01:41;8.70;;;6.37;;
7179;SDS011;3631;42.152;24.756;2023-04-10T01:04:19;8.47;;;6.70;;
7179;SDS011;3631;42.152;24.756;2023-04-10T01:07:08;10.70;;;7.90;;
7179;SDS011;3631;42.152;24.756;2023-04-10T01:10:08;7.67;;;6.80;;
7179;SDS011;3631;42.152;24.756;2023-04-10T01:13:23;9.33;;;7.33;;
7179;SDS011;3631;42.152;24.756;2023-04-10T01:16:35;8.63;;;6.63;;
7179;SDS011;3631;42.152;24.756;2023-04-10T01:19:47;10.33;;;7.10;;
7179;SDS011;3631;42.152;24.756;2023-04-10T01:22:46;9.80;;;7.30;;
7179;SDS011;3631;42.152;24.756;2023-04-10T01:25:55;8.43;;;6.77;;
7179;SDS011;3631;42.152;24.756;2023-04-10T01:38:51;7.17;;;6.47;;
7179;SDS011;3631;42.152;24.756;2023-04-10T01:41:44;7.63;;;6.83;;
7179;SDS011;3631;42.152;24.756;2023-04-10T01:44:50;7.77;;;6.60;;
7179;SDS011;3631;42.152;24.756;2023-04-10T01:47:51;7.03;;;6.20;;
7179;SDS011;3631;42.152;24.756;2023-04-10T01:54:08;9.03;;;7.13;;
7179;SDS011;3631;42.152;24.756;2023-04-10T01:57:10;10.07;;;7.07;;
7179;SDS011;3631;42.152;24.756;2023-04-10T02:00:09;7.53;;;6.80;;
7179;SDS011;3631;42.152;24.756;2023-04-10T02:03:06;7.97;;;7.17;;
7179;SDS011;3631;42.152;24.756;2023-04-10T02:06:07;9.97;;;7.00;;
7179;SDS011;3631;42.152;24.756;2023-04-10T02:09:11;8.97;;;7.50;;
7179;SDS011;3631;42.152;24.756;2023-04-10T02:12:08;8.87;;;7.50;;
7179;SDS011;3631;42.152;24.756;2023-04-10T02:14:58;9.20;;;7.30;;
7179;SDS011;3631;42.152;24.756;2023-04-10T02:18:00;8.77;;;7.40;;
7179;SDS011;3631;42.152;24.756;2023-04-10T02:20:56;7.63;;;6.83;;
7179;SDS011;3631;42.152;24.756;2023-04-10T02:27:01;11.43;;;8.03;;
7179;SDS011;3631;42.152;24.756;2023-04-10T02:29:52;10.60;;;8.57;;
7179;SDS011;3631;42.152;24.756;2023-04-10T02:32:53;10.17;;;8.60;;
7179;SDS011;3631;42.152;24.756;2023-04-10T02:35:56;12.20;;;9.27;;
7179;SDS011;3631;42.152;24.756;2023-04-10T02:38:47;10.90;;;9.13;;
7179;SDS011;3631;42.152;24.756;2023-04-10T02:41:42;8.90;;;7.70;;
7179;SDS011;3631;42.152;24.756;2023-04-10T02:44:48;8.33;;;7.10;;
7179;SDS011;3631;42.152;24.756;2023-04-10T02:47:50;9.70;;;8.50;;
7179;SDS011;3631;42.152;24.756;2023-04-10T02:50:54;19.40;;;8.33;;
7179;SDS011;3631;42.152;24.756;2023-04-10T02:57:09;12.13;;;8.83;;
7179;SDS011;3631;42.152;24.756;2023-04-10T02:59:58;13.23;;;9.47;;
7179;SDS011;3631;42.152;24.756;2023-04-10T03:02:34;12.63;;;9.17;;
7179;SDS011;3631;42.152;24.756;2023-04-10T03:05:25;14.20;;;9.97;;
7179;SDS011;3631;42.152;24.756;2023-04-10T03:08:18;13.10;;;10.27;;
7179;SDS011;3631;42.152;24.756;2023-04-10T03:11:05;11.10;;;9.83;;
7179;SDS011;3631;42.152;24.756;2023-04-10T03:13:50;14.57;;;10.40;;
7179;SDS011;3631;42.152;24.756;2023-04-10T03:16:47;13.00;;;10.10;;
7179;SDS011;3631;42.152;24.756;2023-04-10T03:19:27;12.77;;;10.07;;
7179;SDS011;3631;42.152;24.756;2023-04-10T03:22:21;13.23;;;10.17;;
7179;SDS011;3631;42.152;24.756;2023-04-10T03:24:55;12.20;;;9.73;;
7179;SDS011;3631;42.152;24.756;2023-04-10T03:27:28;14.63;;;10.03;;
7179;SDS011;3631;42.152;24.756;2023-04-10T03:30:02;11.73;;;9.47;;
7179;SDS011;3631;42.152;24.756;2023-04-10T03:32:43;12.13;;;9.83;;
7179;SDS011;3631;42.152;24.756;2023-04-10T03:35:23;14.73;;;9.53;;
7179;SDS011;3631;42.152;24.756;2023-04-10T03:38:03;12.40;;;9.53;;
7179;SDS011;3631;42.152;24.756;2023-04-10T03:40:46;12.83;;;9.57;;
7179;SDS011;3631;42.152;24.756;2023-04-10T03:43:35;13.47;;;9.90;;
7179;SDS011;3631;42.152;24.756;2023-04-10T03:46:45;13.30;;;9.60;;
7179;SDS011;3631;42.152;24.756;2023-04-10T03:49:36;9.90;;;8.90;;
7179;SDS011;3631;42.152;24.756;2023-04-10T03:52:23;12.87;;;9.50;;
7179;SDS011;3631;42.152;24.756;2023-04-10T03:55:20;15.37;;;10.00;;
7179;SDS011;3631;42.152;24.756;2023-04-10T03:58:03;14.23;;;9.87;;
7179;SDS011;3631;42.152;24.756;2023-04-10T04:00:39;14.70;;;9.83;;
7179;SDS011;3631;42.152;24.756;2023-04-10T04:03:17;13.00;;;9.13;;
7179;SDS011;3631;42.152;24.756;2023-04-10T04:05:52;16.43;;;9.77;;
7179;SDS011;3631;42.152;24.756;2023-04-10T04:08:27;12.97;;;9.13;;
7179;SDS011;3631;42.152;24.756;2023-04-10T04:11:22;13.07;;;10.00;;
7179;SDS011;3631;42.152;24.756;2023-04-10T04:14:13;12.50;;;9.57;;
7179;SDS011;3631;42.152;24.756;2023-04-10T04:16:58;10.70;;;8.70;;
7179;SDS011;3631;42.152;24.756;2023-04-10T04:19:54;14.37;;;9.77;;
7179;SDS011;3631;42.152;24.756;2023-04-10T04:22:47;15.07;;;9.93;;
7179;SDS011;3631;42.152;24.756;2023-04-10T04:25:41;17.77;;;10.73;;
7179;SDS011;3631;42.152;24.756;2023-04-10T04:28:58;14.00;;;9.57;;
7179;SDS011;3631;42.152;24.756;2023-04-10T04:32:01;11.17;;;9.17;;
7179;SDS011;3631;42.152;24.756;2023-04-10T04:35:08;17.80;;;10.67;;
7179;SDS011;3631;42.152;24.756;2023-04-10T04:38:32;14.27;;;11.40;;
7179;SDS011;3631;42.152;24.756;2023-04-10T04:41:47;18.27;;;11.57;;
7179;SDS011;3631;42.152;24.756;2023-04-10T04:44:47;33.43;;;12.63;;
7179;SDS011;3631;42.152;24.756;2023-04-10T04:47:37;21.70;;;12.67;;
7179;SDS011;3631;42.152;24.756;2023-04-10T04:50:38;22.13;;;12.40;;
7179;SDS011;3631;42.152;24.756;2023-04-10T04:56:37;14.47;;;11.67;;
7179;SDS011;3631;42.152;24.756;2023-04-10T04:59:26;20.53;;;12.23;;
7179;SDS011;3631;42.152;24.756;2023-04-10T05:02:04;19.90;;;12.17;;
7179;SDS011;3631;42.152;24.756;2023-04-10T05:04:41;18.67;;;12.40;;
7179;SDS011;3631;42.152;24.756;2023-04-10T05:07:30;18.00;;;13.20;;
7179;SDS011;3631;42.152;24.756;2023-04-10T05:10:09;20.73;;;12.83;;
7179;SDS011;3631;42.152;24.756;2023-04-10T05:12:52;21.07;;;12.63;;
7179;SDS011;3631;42.152;24.756;2023-04-10T05:15:37;16.43;;;11.17;;
7179;SDS011;3631;42.152;24.756;2023-04-10T05:18:24;29.00;;;19.40;;
7179;SDS011;3631;42.152;24.756;2023-04-10T05:21:13;15.63;;;13.60;;
7179;SDS011;3631;42.152;24.756;2023-04-10T05:24:14;20.70;;;12.43;;
7179;SDS011;3631;42.152;24.756;2023-04-10T05:27:14;17.80;;;11.03;;
7179;SDS011;3631;42.152;24.756;2023-04-10T05:30:12;21.13;;;11.10;;
7179;SDS011;3631;42.152;24.756;2023-04-10T05:32:59;20.73;;;10.93;;
7179;SDS011;3631;42.152;24.756;2023-04-10T05:36:02;14.20;;;10.40;;
7179;SDS011;3631;42.152;24.756;2023-04-10T05:38:45;14.53;;;10.20;;
7179;SDS011;3631;42.152;24.756;2023-04-10T05:44:55;17.83;;;11.73;;
7179;SDS011;3631;42.152;24.756;2023-04-10T05:47:57;13.30;;;10.10;;
7179;SDS011;3631;42.152;24.756;2023-04-10T05:51:06;17.93;;;10.90;;
7179;SDS011;3631;42.152;24.756;2023-04-10T05:54:01;14.23;;;9.80;;
7179;SDS011;3631;42.152;24.756;2023-04-10T05:56:57;16.63;;;11.13;;
7179;SDS011;3631;42.152;24.756;2023-04-10T06:02:59;13.87;;;9.20;;
7179;SDS011;3631;42.152;24.756;2023-04-10T06:05:44;9.57;;;8.57;;
7179;SDS011;3631;42.152;24.756;2023-04-10T06:08:33;12.23;;;8.53;;
7179;SDS011;3631;42.152;24.756;2023-04-10T06:11:41;8.07;;;7.27;;
7179;SDS011;3631;42.152;24.756;2023-04-10T06:14:28;7.93;;;7.20;;
7179;SDS011;3631;42.152;24.756;2023-04-10T06:17:28;6.60;;;6.00;;
7179;SDS011;3631;42.152;24.756;2023-04-10T06:20:09;7.33;;;6.63;;
7179;SDS011;3631;42.152;24.756;2023-04-10T06:23:01;7.90;;;7.10;;
7179;SDS011;3631;42.152;24.756;2023-04-10T06:25:47;7.95;;;7.05;;
7179;SDS011;3631;42.152;24.756;2023-04-10T06:28:33;7.28;;;6.57;;
7179;SDS011;3631;42.152;24.756;2023-04-10T06:31:40;9.20;;;7.18;;
7179;SDS011;3631;42.152;24.756;2023-04-10T06:38:10;7.53;;;6.80;;
7179;SDS011;3631;42.152;24.756;2023-04-10T06:41:14;6.72;;;6.13;;
7179;SDS011;3631;42.152;24.756;2023-04-10T06:44:28;8.55;;;6.20;;
7179;SDS011;3631;42.152;24.756;2023-04-10T06:47:39;6.65;;;6.15;;
7179;SDS011;3631;42.152;24.756;2023-04-10T06:50:34;6.72;;;6.18;;
7179;SDS011;3631;42.152;24.756;2023-04-10T06:53:12;6.45;;;5.97;;
7179;SDS011;3631;42.152;24.756;2023-04-10T06:55:51;6.45;;;5.75;;
7179;SDS011;3631;42.152;24.756;2023-04-10T06:58:32;6.70;;;6.20;;
7179;SDS011;3631;42.152;24.756;2023-04-10T07:01:14;6.00;;;5.60;;
7179;SDS011;3631;42.152;24.756;2023-04-10T07:03:50;6.07;;;5.50;;
7179;SDS011;3631;42.152;24.756;2023-04-10T07:06:31;6.05;;;5.65;;
7179;SDS011;3631;42.152;24.756;2023-04-10T07:09:19;5.93;;;5.53;;
7179;SDS011;3631;42.152;24.756;2023-04-10T07:12:05;5.75;;;5.35;;
7179;SDS011;3631;42.152;24.756;2023-04-10T07:14:48;6.32;;;5.72;;
7179;SDS011;3631;42.152;24.756;2023-04-10T07:17:27;5.95;;;5.55;;
7179;SDS011;3631;42.152;24.756;2023-04-10T07:20:05;6.50;;;5.90;;
7179;SDS011;3631;42.152;24.756;2023-04-10T07:22:57;7.60;;;6.53;;
7179;SDS011;3631;42.152;24.756;2023-04-10T07:25:38;6.75;;;6.25;;
7179;SDS011;3631;42.152;24.756;2023-04-10T07:28:18;9.60;;;8.90;;
7179;SDS011;3631;42.152;24.756;2023-04-10T07:31:09;20.70;;;18.08;;
7179;SDS011;3631;42.152;24.756;2023-04-10T07:33:50;7.90;;;7.40;;
7179;SDS011;3631;42.152;24.756;2023-04-10T07:36:48;7.45;;;6.88;;
7179;SDS011;3631;42.152;24.756;2023-04-10T07:39:42;14.07;;;11.45;;
7179;SDS011;3631;42.152;24.756;2023-04-10T07:42:30;12.95;;;10.43;;
7179;SDS011;3631;42.152;24.756;2023-04-10T07:45:26;5.60;;;5.30;;
7179;SDS011;3631;42.152;24.756;2023-04-10T07:48:03;5.55;;;5.15;;
7179;SDS011;3631;42.152;24.756;2023-04-10T07:50:41;5.38;;;5.03;;
7179;SDS011;3631;42.152;24.756;2023-04-10T07:53:13;5.68;;;5.28;;
7179;SDS011;3631;42.152;24.756;2023-04-10T07:55:59;5.97;;;5.47;;
7179;SDS011;3631;42.152;24.756;2023-04-10T07:58:58;5.82;;;5.28;;
7179;SDS011;3631;42.152;24.756;2023-04-10T08:01:48;5.43;;;5.03;;
7179;SDS011;3631;42.152;24.756;2023-04-10T08:04:25;4.97;;;4.63;;
7179;SDS011;3631;42.152;24.756;2023-04-10T08:07:09;4.65;;;4.35;;
7179;SDS011;3631;42.152;24.756;2023-04-10T08:09:43;5.18;;;4.47;;
7179;SDS011;3631;42.152;24.756;2023-04-10T08:15:40;4.63;;;4.32;;
7179;SDS011;3631;42.152;24.756;2023-04-10T08:18:42;13.57;;;11.80;;
7179;SDS011;3631;42.152;24.756;2023-04-10T08:21:48;5.95;;;3.97;;
7179;SDS011;3631;42.152;24.756;2023-04-10T08:25:00;4.78;;;4.32;;
7179;SDS011;3631;42.152;24.756;2023-04-10T08:30:50;4.45;;;4.05;;
7179;SDS011;3631;42.152;24.756;2023-04-10T08:33:46;4.07;;;3.80;;
7179;SDS011;3631;42.152;24.756;2023-04-10T08:36:45;4.63;;;3.60;;
7179;SDS011;3631;42.152;24.756;2023-04-10T08:39:59;3.67;;;3.37;;
7179;SDS011;3631;42.152;24.756;2023-04-10T08:42:54;3.70;;;3.40;;
7179;SDS011;3631;42.152;24.756;2023-04-10T08:46:07;3.50;;;3.30;;
7179;SDS011;3631;42.152;24.756;2023-04-10T08:49:14;4.67;;;4.00;;
7179;SDS011;3631;42.152;24.756;2023-04-10T08:52:19;3.70;;;3.40;;
7179;SDS011;3631;42.152;24.756;2023-04-10T08:55:42;3.10;;;2.90;;
7179;SDS011;3631;42.152;24.756;2023-04-10T08:58:26;3.23;;;2.93;;
7179;SDS011;3631;42.152;24.756;2023-04-10T09:00:55;5.43;;;4.10;;
7179;SDS011;3631;42.152;24.756;2023-04-10T09:06:51;4.70;;;3.03;;
7179;SDS011;3631;42.152;24.756;2023-04-10T09:09:34;4.67;;;3.73;;
7179;SDS011;3631;42.152;24.756;2023-04-10T09:12:29;3.63;;;3.33;;
7179;SDS011;3631;42.152;24.756;2023-04-10T09:15:28;3.13;;;2.93;;
7179;SDS011;3631;42.152;24.756;2023-04-10T09:18:44;3.10;;;2.90;;
7179;SDS011;3631;42.152;24.756;2023-04-10T09:25:04;3.10;;;2.90;;
7179;SDS011;3631;42.152;24.756;2023-04-10T09:28:27;4.07;;;3.00;;
7179;SDS011;3631;42.152;24.756;2023-04-10T09:31:31;3.20;;;3.00;;
7179;SDS011;3631;42.152;24.756;2023-04-10T09:35:18;9.03;;;5.97;;
7179;SDS011;3631;42.152;24.756;2023-04-10T09:38:36;4.37;;;3.93;;
7179;SDS011;3631;42.152;24.756;2023-04-10T09:41:38;6.83;;;3.67;;
7179;SDS011;3631;42.152;24.756;2023-04-10T09:44:41;6.47;;;4.43;;
7179;SDS011;3631;42.152;24.756;2023-04-10T09:47:44;5.00;;;4.50;;
7179;SDS011;3631;42.152;24.756;2023-04-10T09:50:46;4.00;;;3.50;;
7179;SDS011;3631;42.152;24.756;2023-04-10T09:57:02;5.70;;;4.20;;
7179;SDS011;3631;42.152;24.756;2023-04-10T09:59:49;8.30;;;4.60;;
7179;SDS011;3631;42.152;24.756;2023-04-10T10:02:31;7.90;;;4.10;;
7179;SDS011;3631;42.152;24.756;2023-04-10T10:05:29;3.97;;;3.47;;
7179;SDS011;3631;42.152;24.756;2023-04-10T10:08:27;5.33;;;4.07;;
7179;SDS011;3631;42.152;24.756;2023-04-10T10:11:36;4.07;;;3.67;;
7179;SDS011;3631;42.152;24.756;2023-04-10T10:14:32;4.60;;;4.20;;
7179;SDS011;3631;42.152;24.756;2023-04-10T10:17:17;4.27;;;3.80;;
7179;SDS011;3631;42.152;24.756;2023-04-10T10:20:03;4.93;;;4.40;;
7179;SDS011;3631;42.152;24.756;2023-04-10T10:22:54;5.07;;;4.67;;
7179;SDS011;3631;42.152;24.756;2023-04-10T10:25:38;6.33;;;4.10;;
7179;SDS011;3631;42.152;24.756;2023-04-10T10:28:40;5.20;;;4.67;;
7179;SDS011;3631;42.152;24.756;2023-04-10T10:31:27;6.83;;;4.50;;
7179;SDS011;3631;42.152;24.756;2023-04-10T10:34:06;4.47;;;4.07;;
7179;SDS011;3631;42.152;24.756;2023-04-10T10:36:49;5.27;;;4.70;;
7179;SDS011;3631;42.152;24.756;2023-04-10T10:39:33;5.93;;;4.20;;
7179;SDS011;3631;42.152;24.756;2023-04-10T10:42:19;6.50;;;4.80;;
7179;SDS011;3631;42.152;24.756;2023-04-10T10:45:02;5.37;;;4.97;;
7179;SDS011;3631;42.152;24.756;2023-04-10T10:47:40;7.20;;;4.90;;
7179;SDS011;3631;42.152;24.756;2023-04-10T10:50:18;7.43;;;4.80;;
7179;SDS011;3631;42.152;24.756;2023-04-10T10:52:51;5.87;;;4.83;;
7179;SDS011;3631;42.152;24.756;2023-04-10T10:55:32;7.10;;;4.80;;
7179;SDS011;3631;42.152;24.756;2023-04-10T11:01:55;7.73;;;4.70;;
7179;SDS011;3631;42.152;24.756;2023-04-10T11:05:08;5.80;;;5.20;;
7179;SDS011;3631;42.152;24.756;2023-04-10T11:08:35;7.37;;;5.37;;
7179;SDS011;3631;42.152;24.756;2023-04-10T11:11:39;6.70;;;6.10;;
7179;SDS011;3631;42.152;24.756;2023-04-10T11:15:04;6.23;;;5.00;;
7179;SDS011;3631;42.152;24.756;2023-04-10T11:18:04;5.23;;;4.80;;
7179;SDS011;3631;42.152;24.756;2023-04-10T11:24:14;5.63;;;3.77;;
7179;SDS011;3631;42.152;24.756;2023-04-10T11:26:59;4.50;;;4.10;;
7179;SDS011;3631;42.152;24.756;2023-04-10T11:29:39;6.70;;;4.10;;
7179;SDS011;3631;42.152;24.756;2023-04-10T11:32:42;8.67;;;4.67;;
7179;SDS011;3631;42.152;24.756;2023-04-10T11:35:34;6.37;;;4.67;;
7179;SDS011;3631;42.152;24.756;2023-04-10T11:38:34;5.37;;;4.87;;
7179;SDS011;3631;42.152;24.756;2023-04-10T11:41:42;6.90;;;4.10;;
7179;SDS011;3631;42.152;24.756;2023-04-10T11:44:38;4.20;;;3.80;;
7179;SDS011;3631;42.152;24.756;2023-04-10T11:47:42;4.13;;;3.80;;
7179;SDS011;3631;42.152;24.756;2023-04-10T11:50:33;4.60;;;4.20;;
7179;SDS011;3631;42.152;24.756;2023-04-10T11:53:33;6.10;;;4.27;;
7179;SDS011;3631;42.152;24.756;2023-04-10T11:56:48;5.30;;;4.87;;
7179;SDS011;3631;42.152;24.756;2023-04-10T11:59:39;5.20;;;4.70;;
7179;SDS011;3631;42.152;24.756;2023-04-10T12:02:35;5.33;;;4.60;;
7179;SDS011;3631;42.152;24.756;2023-04-10T12:05:46;4.83;;;4.33;;
7179;SDS011;3631;42.152;24.756;2023-04-10T12:08:47;10.23;;;8.33;;
7179;SDS011;3631;42.152;24.756;2023-04-10T12:11:46;7.97;;;5.40;;
7179;SDS011;3631;42.152;24.756;2023-04-10T12:14:40;7.77;;;4.43;;
7179;SDS011;3631;42.152;24.756;2023-04-10T12:17:38;8.40;;;4.80;;
7179;SDS011;3631;42.152;24.756;2023-04-10T12:20:28;5.10;;;4.60;;
7179;SDS011;3631;42.152;24.756;2023-04-10T12:23:17;5.23;;;4.73;;
7179;SDS011;3631;42.152;24.756;2023-04-10T12:25:51;6.07;;;4.97;;
7179;SDS011;3631;42.152;24.756;2023-04-10T12:28:52;4.10;;;3.80;;
7179;SDS011;3631;42.152;24.756;2023-04-10T12:31:32;3.97;;;3.67;;
7179;SDS011;3631;42.152;24.756;2023-04-10T12:34:06;4.43;;;3.77;;
7179;SDS011;3631;42.152;24.756;2023-04-10T12:36:35;4.20;;;3.80;;
7179;SDS011;3631;42.152;24.756;2023-04-10T12:39:20;6.00;;;5.40;;
7179;SDS011;3631;42.152;24.756;2023-04-10T12:44:59;6.47;;;4.70;;
7179;SDS011;3631;42.152;24.756;2023-04-10T12:47:52;5.50;;;5.00;;
7179;SDS011;3631;42.152;24.756;2023-04-10T12:50:52;4.30;;;4.00;;
7179;SDS011;3631;42.152;24.756;2023-04-10T12:53:45;4.50;;;4.10;;
7179;SDS011;3631;42.152;24.756;2023-04-10T12:56:15;6.33;;;4.30;;
7179;SDS011;3631;42.152;24.756;2023-04-10T12:58:52;4.27;;;3.97;;
7179;SDS011;3631;42.152;24.756;2023-04-10T13:02:09;5.30;;;4.30;;
7179;SDS011;3631;42.152;24.756;2023-04-10T13:05:00;4.73;;;4.33;;
7179;SDS011;3631;42.152;24.756;2023-04-10T13:07:53;4.60;;;4.20;;
7179;SDS011;3631;42.152;24.756;2023-04-10T13:10:38;5.00;;;4.03;;
7179;SDS011;3631;42.152;24.756;2023-04-10T13:13:29;3.93;;;3.63;;
7179;SDS011;3631;42.152;24.756;2023-04-10T13:16:10;5.50;;;4.67;;
7179;SDS011;3631;42.152;24.756;2023-04-10T13:18:45;4.63;;;3.57;;
7179;SDS011;3631;42.152;24.756;2023-04-10T13:21:16;4.80;;;4.40;;
7179;SDS011;3631;42.152;24.756;2023-04-10T13:23:50;4.50;;;3.90;;
7179;SDS011;3631;42.152;24.756;2023-04-10T13:26:26;4.20;;;3.90;;
7179;SDS011;3631;42.152;24.756;2023-04-10T13:29:00;4.83;;;4.40;;
7179;SDS011;3631;42.152;24.756;2023-04-10T13:31:32;4.67;;;4.20;;
7179;SDS011;3631;42.152;24.756;2023-04-10T13:34:25;4.23;;;3.93;;
7179;SDS011;3631;42.152;24.756;2023-04-10T13:37:13;4.07;;;3.77;;
7179;SDS011;3631;42.152;24.756;2023-04-10T13:39:47;5.10;;;3.77;;
7179;SDS011;3631;42.152;24.756;2023-04-10T13:42:25;5.17;;;4.13;;
7179;SDS011;3631;42.152;24.756;2023-04-10T13:45:29;4.37;;;4.07;;
7179;SDS011;3631;42.152;24.756;2023-04-10T13:48:39;4.30;;;3.97;;
7179;SDS011;3631;42.152;24.756;2023-04-10T13:51:38;7.40;;;5.27;;
7179;SDS011;3631;42.152;24.756;2023-04-10T13:54:34;6.70;;;4.57;;
7179;SDS011;3631;42.152;24.756;2023-04-10T13:57:29;5.20;;;4.70;;
7179;SDS011;3631;42.152;24.756;2023-04-10T13:59:59;6.47;;;4.63;;
7179;SDS011;3631;42.152;24.756;2023-04-10T14:02:43;23.00;;;14.07;;
7179;SDS011;3631;42.152;24.756;2023-04-10T14:05:32;12.17;;;9.37;;
7179;SDS011;3631;42.152;24.756;2023-04-10T14:08:17;8.80;;;6.07;;
7179;SDS011;3631;42.152;24.756;2023-04-10T14:11:02;5.03;;;4.63;;
7179;SDS011;3631;42.152;24.756;2023-04-10T14:14:02;5.50;;;5.00;;
7179;SDS011;3631;42.152;24.756;2023-04-10T14:17:13;6.07;;;5.40;;
7179;SDS011;3631;42.152;24.756;2023-04-10T14:19:56;5.07;;;4.67;;
7179;SDS011;3631;42.152;24.756;2023-04-10T14:22:41;5.43;;;4.30;;
7179;SDS011;3631;42.152;24.756;2023-04-10T14:28:33;22.93;;;13.27;;
7179;SDS011;3631;42.152;24.756;2023-04-10T14:31:44;18.33;;;11.47;;
7179;SDS011;3631;42.152;24.756;2023-04-10T14:34:48;7.57;;;6.77;;
7179;SDS011;3631;42.152;24.756;2023-04-10T14:37:41;6.33;;;5.83;;
7179;SDS011;3631;42.152;24.756;2023-04-10T14:40:53;9.20;;;6.73;;
7179;SDS011;3631;42.152;24.756;2023-04-10T14:47:11;7.20;;;5.97;;
7179;SDS011;3631;42.152;24.756;2023-04-10T14:50:30;7.13;;;6.53;;
7179;SDS011;3631;42.152;24.756;2023-04-10T14:53:28;6.40;;;5.80;;
7179;SDS011;3631;42.152;24.756;2023-04-10T14:56:29;7.00;;;6.03;;
7179;SDS011;3631;42.152;24.756;2023-04-10T15:02:59;7.30;;;5.80;;
7179;SDS011;3631;42.152;24.756;2023-04-10T15:05:58;6.67;;;5.70;;
7179;SDS011;3631;42.152;24.756;2023-04-10T15:08:52;4.77;;;4.47;;
7179;SDS011;3631;42.152;24.756;2023-04-10T15:11:57;4.80;;;4.40;;
7179;SDS011;3631;42.152;24.756;2023-04-10T15:15:27;5.70;;;5.17;;
7179;SDS011;3631;42.152;24.756;2023-04-10T15:22:05;4.87;;;4.10;;
7179;SDS011;3631;42.152;24.756;2023-04-10T15:25:14;4.37;;;4.00;;
7179;SDS011;3631;42.152;24.756;2023-04-10T15:27:56;4.43;;;4.13;;
7179;SDS011;3631;42.152;24.756;2023-04-10T15:30:53;5.23;;;4.60;;
7179;SDS011;3631;42.152;24.756;2023-04-10T15:33:59;5.20;;;4.80;;
7179;SDS011;3631;42.152;24.756;2023-04-10T15:40:05;5.90;;;4.90;;
7179;SDS011;3631;42.152;24.756;2023-04-10T15:43:00;6.10;;;5.40;;
7179;SDS011;3631;42.152;24.756;2023-04-10T15:45:57;5.47;;;4.93;;
7179;SDS011;3631;42.152;24.756;2023-04-10T15:48:53;7.00;;;6.30;;
7179;SDS011;3631;42.152;24.756;2023-04-10T15:51:58;8.87;;;6.37;;
7179;SDS011;3631;42.152;24.756;2023-04-10T15:54:49;6.17;;;5.37;;
7179;SDS011;3631;42.152;24.756;2023-04-10T15:57:45;11.10;;;8.10;;
7179;SDS011;3631;42.152;24.756;2023-04-10T16:00:52;11.47;;;8.90;;
7179;SDS011;3631;42.152;24.756;2023-04-10T16:03:51;8.67;;;7.37;;
7179;SDS011;3631;42.152;24.756;2023-04-10T16:06:47;6.80;;;5.93;;
7179;SDS011;3631;42.152;24.756;2023-04-10T16:13:04;8.00;;;7.30;;
7179;SDS011;3631;42.152;24.756;2023-04-10T16:15:48;10.50;;;7.87;;
7179;SDS011;3631;42.152;24.756;2023-04-10T16:18:42;11.83;;;8.23;;
7179;SDS011;3631;42.152;24.756;2023-04-10T16:21:20;10.40;;;8.20;;
7179;SDS011;3631;42.152;24.756;2023-04-10T16:24:03;8.67;;;7.90;;
7179;SDS011;3631;42.152;24.756;2023-04-10T16:26:56;10.77;;;7.90;;
7179;SDS011;3631;42.152;24.756;2023-04-10T16:32:48;12.03;;;8.63;;
7179;SDS011;3631;42.152;24.756;2023-04-10T16:35:40;16.73;;;11.00;;
7179;SDS011;3631;42.152;24.756;2023-04-10T16:38:40;18.87;;;11.40;;
7179;SDS011;3631;42.152;24.756;2023-04-10T16:41:32;23.43;;;13.37;;
7179;SDS011;3631;42.152;24.756;2023-04-10T16:44:04;17.97;;;12.93;;
7179;SDS011;3631;42.152;24.756;2023-04-10T16:46:41;16.00;;;11.37;;
7179;SDS011;3631;42.152;24.756;2023-04-10T16:49:16;17.97;;;11.97;;
7179;SDS011;3631;42.152;24.756;2023-04-10T16:52:02;22.73;;;13.70;;
7179;SDS011;3631;42.152;24.756;2023-04-10T16:54:40;19.43;;;13.30;;
7179;SDS011;3631;42.152;24.756;2023-04-10T16:57:29;22.90;;;15.00;;
7179;SDS011;3631;42.152;24.756;2023-04-10T17:00:11;22.90;;;15.20;;
7179;SDS011;3631;42.152;24.756;2023-04-10T17:02:52;18.33;;;13.23;;
7179;SDS011;3631;42.152;24.756;2023-04-10T17:05:43;15.73;;;11.80;;
7179;SDS011;3631;42.152;24.756;2023-04-10T17:08:34;22.93;;;12.03;;
7179;SDS011;3631;42.152;24.756;2023-04-10T17:11:26;16.67;;;12.40;;
7179;SDS011;3631;42.152;24.756;2023-04-10T17:14:08;18.07;;;12.57;;
7179;SDS011;3631;42.152;24.756;2023-04-10T17:16:49;12.57;;;10.00;;
7179;SDS011;3631;42.152;24.756;2023-04-10T17:19:28;13.23;;;10.53;;
7179;SDS011;3631;42.152;24.756;2023-04-10T17:22:01;17.77;;;13.27;;
7179;SDS011;3631;42.152;24.756;2023-04-10T17:24:45;19.13;;;13.40;;
7179;SDS011;3631;42.152;24.756;2023-04-10T17:27:18;17.50;;;9.77;;
7179;SDS011;3631;42.152;24.756;2023-04-10T17:29:55;14.97;;;9.47;;
7179;SDS011;3631;42.152;24.756;2023-04-10T17:32:30;10.20;;;8.83;;
7179;SDS011;3631;42.152;24.756;2023-04-10T17:35:09;10.47;;;9.37;;
7179;SDS011;3631;42.152;24.756;2023-04-10T17:37:50;14.70;;;9.90;;
7179;SDS011;3631;42.152;24.756;2023-04-10T17:40:31;9.33;;;7.87;;
7179;SDS011;3631;42.152;24.756;2023-04-10T17:43:14;8.67;;;7.87;;
7179;SDS011;3631;42.152;24.756;2023-04-10T17:45:59;10.37;;;8.30;;
7179;SDS011;3631;42.152;24.756;2023-04-10T17:48:39;12.03;;;9.63;;
7179;SDS011;3631;42.152;24.756;2023-04-10T17:51:18;14.83;;;10.87;;
7179;SDS011;3631;42.152;24.756;2023-04-10T17:53:49;16.83;;;11.47;;
7179;SDS011;3631;42.152;24.756;2023-04-10T17:56:25;27.70;;;15.57;;
7179;SDS011;3631;42.152;24.756;2023-04-10T17:59:16;17.17;;;12.77;;
7179;SDS011;3631;42.152;24.756;2023-04-10T18:02:02;18.20;;;12.43;;
7179;SDS011;3631;42.152;24.756;2023-04-10T18:04:48;19.23;;;13.57;;
7179;SDS011;3631;42.152;24.756;2023-04-10T18:07:38;14.57;;;11.57;;
7179;SDS011;3631;42.152;24.756;2023-04-10T18:10:34;18.17;;;13.13;;
7179;SDS011;3631;42.152;24.756;2023-04-10T18:13:13;29.03;;;16.00;;
7179;SDS011;3631;42.152;24.756;2023-04-10T18:16:01;29.50;;;15.67;;
7179;SDS011;3631;42.152;24.756;2023-04-10T18:18:44;32.70;;;17.70;;
7179;SDS011;3631;42.152;24.756;2023-04-10T18:21:15;19.47;;;13.43;;
7179;SDS011;3631;42.152;24.756;2023-04-10T18:27:07;15.00;;;10.53;;
7179;SDS011;3631;42.152;24.756;2023-04-10T18:29:39;12.90;;;11.07;;
7179;SDS011;3631;42.152;24.756;2023-04-10T18:32:17;11.63;;;9.67;;
7179;SDS011;3631;42.152;24.756;2023-04-10T18:35:01;15.53;;;11.57;;
7179;SDS011;3631;42.152;24.756;2023-04-10T18:37:38;16.50;;;11.93;;
7179;SDS011;3631;42.152;24.756;2023-04-10T18:40:27;20.57;;;12.70;;
7179;SDS011;3631;42.152;24.756;2023-04-10T18:43:25;23.00;;;14.80;;
7179;SDS011;3631;42.152;24.756;2023-04-10T18:46:20;22.67;;;15.63;;
7179;SDS011;3631;42.152;24.756;2023-04-10T18:49:21;32.47;;;20.30;;
7179;SDS011;3631;42.152;24.756;2023-04-10T18:52:07;36.33;;;20.10;;